Latest Coastal Weather Observations for Friendly Beaches

IDT60701

Issued at 6:03 am EST Tuesday 26 July 2016 (issued every 10 minutes, with the page automatically refreshed every 10 minutes)

About coastal observations | Map of coastal stations | Coastal observations for TAS | Marine services | Other Formats
Station Details ID: 092114 Name: FRIENDLY BEACHES Lat: -42.00 Lon: 148.28 Height: 55.0 m
Data from the previous 72 hours. | See also: Recent months at Friendly Beaches
Date/Time
EST
Temp
°C
Wind Pressure Rain since
9am
mm
Weather Cloud Vis
km
Sea
Height
m
Swell
Dir  Spd
kts
Gust
kts
hPa Trend Height
m
Period
s
Dir
26/06:00am 5.6 WNW 9 15 995.8 - 0.0 - - - - - - -
26/05:30am 5.8 WNW 9 19 995.1 - 0.0 - - - - - - -
26/05:00am 6.0 WNW 12 23 994.5 - 0.0 - - - - - - -
26/04:30am 6.0 WNW 11 21 994.0 - 0.0 - - - - - - -
26/04:00am 6.1 NW 13 21 993.2 - 0.0 - - - - - - -
26/03:30am 6.3 WNW 13 23 992.9 - 0.0 - - - - - - -
26/03:00am 6.5 WNW 13 26 992.5 - 0.0 - - - - - - -
26/02:38am 6.6 WNW 15 29 992.2 - 0.0 - - - - - - -
26/02:30am 6.4 WNW 13 24 992.3 - 0.0 - - - - - - -
26/02:00am 6.8 WNW 14 23 992.1 - 0.0 - - - - - - -
26/01:51am 6.9 WNW 15 26 992.0 - 0.0 - - - - - - -
26/01:30am 6.8 WNW 13 23 991.7 - 0.0 - - - - - - -
26/01:03am 7.2 WNW 15 28 990.9 - 0.0 - - - - - - -
26/01:00am 7.2 WNW 14 29 990.8 - 0.0 - - - - - - -
26/12:30am 7.5 WNW 16 30 990.8 - 0.0 - - - - - - -
26/12:15am 7.6 WNW 15 29 990.5 - 0.0 - - - - - - -
26/12:00am 7.7 WNW 13 29 989.8 - 0.0 - - - - - - -
 
Date/Time
EST
Temp
°C
Wind Pressure Rain since
9am
mm
Weather Cloud Vis
km
Sea
Height
m
Swell
Dir  Spd
kts
Gust
kts
hPa Trend Height
m
Period
s
Dir
25/11:30pm 8.2 WNW 15 28 989.9 - 0.0 - - - - - - -
25/11:03pm 8.7 WNW 15 31 989.6 - 0.0 - - - - - - -
25/11:00pm 8.6 WNW 13 31 989.6 - 0.0 - - - - - - -
25/10:30pm 9.2 NW 15 28 988.9 - 0.0 - - - - - - -
25/10:15pm 9.2 NW 15 28 988.5 - 0.0 - - - - - - -
25/10:00pm 9.2 NW 9 22 988.5 - 0.0 - - - - - - -
25/09:30pm 8.7 NNW 10 20 987.8 - 0.0 - - - - - - -
25/09:00pm 8.1 NNW 5 10 989.7 - 0.0 - - - - - - -
25/08:30pm 9.3 N 8 16 989.8 - 0.0 - - - - - - -
25/08:00pm 10.4 N 8 20 990.0 - 0.0 - - - - - - -
25/07:30pm 9.9 N 10 18 990.6 - 0.0 - - - - - - -
25/07:00pm 9.7 N 8 15 991.7 - 0.0 - - - - - - -
25/06:30pm 10.0 NNW 8 13 992.6 - 0.0 - - - - - - -
25/06:00pm 10.3 NNW 8 13 992.9 - 0.0 - - - - - - -
25/05:30pm 9.8 NW 6 9 993.6 - 0.0 - - - - - - -
25/05:00pm 10.9 NW 7 13 994.0 - 0.0 - - - - - - -
25/04:30pm 12.1 NW 6 9 994.3 - 0.0 - - - - - - -
25/04:00pm 12.0 NW 7 15 994.9 - 0.0 - - - - - - -
25/03:30pm 13.0 WNW 9 18 995.4 - 0.0 - - - - - - -
25/03:00pm 12.3 NW 11 18 995.3 - 0.0 - - - - - - -
25/02:30pm 12.5 WNW 10 17 995.4 - 0.0 - - - - - - -
25/02:00pm 12.6 WNW 8 16 995.7 - 0.0 - - - - - - -
25/01:30pm 13.8 NW 10 16 995.8 - 0.0 - - - - - - -
25/01:00pm 14.4 NW 7 12 996.2 - 0.0 - - - - - - -
25/12:30pm 14.0 N 3 6 996.9 - 0.0 - - - - - - -
25/12:00pm 13.7 N 5 9 997.6 - 0.0 - - - - - - -
25/11:30am 12.7 N 5 7 998.2 - 0.0 - - - - - - -
25/11:00am 10.7 NNW 2 4 998.8 - 0.0 - - - - - - -
25/10:30am 9.9 NNW 2 3 999.0 - 0.0 - - - - - - -
25/10:00am 9.1 N 4 5 999.1 - 0.0 - - - - - - -
25/09:30am 9.1 N 5 7 999.2 - 0.0 - - - - - - -
25/09:00am 9.0 N 7 9 999.3 - 0.0 - - - - - - -
25/08:30am 9.2 N 6 10 999.2 - 0.0 - - - - - - -
25/08:00am 9.1 N 6 9 999.4 - 0.0 - - - - - - -
25/07:30am 8.1 N 5 8 999.6 - 0.0 - - - - - - -
25/07:00am 8.1 N 6 9 999.6 - 0.0 - - - - - - -
25/06:30am 8.0 N 6 9 999.7 - 0.0 - - - - - - -
25/06:00am 8.0 N 5 8 999.8 - 0.0 - - - - - - -
25/05:30am 7.5 N 5 6 999.8 - 0.0 - - - - - - -
25/05:00am 7.5 N 5 6 999.9 - 0.0 - - - - - - -
25/04:30am 7.7 NNW 5 8 999.9 - 0.0 - - - - - - -
25/04:00am 7.8 NNW 5 8 999.9 - 0.0 - - - - - - -
25/03:30am 8.0 N 5 8 1000.1 - 0.0 - - - - - - -
25/03:00am 7.6 N 7 11 1000.5 - 0.0 - - - - - - -
25/02:30am 7.9 N 7 12 1000.7 - 0.0 - - - - - - -
25/02:00am 7.8 N 7 10 1000.7 - 0.0 - - - - - - -
25/01:30am 7.2 N 6 10 1000.7 - 0.0 - - - - - - -
25/01:00am 6.9 N 5 7 1001.0 - 0.0 - - - - - - -
25/12:30am 7.0 N 6 9 1001.3 - 0.0 - - - - - - -
25/12:00am 6.7 N 5 7 1001.5 - 0.0 - - - - - - -
 
Date/Time
EST
Temp
°C
Wind Pressure Rain since
9am
mm
Weather Cloud Vis
km
Sea
Height
m
Swell
Dir  Spd
kts
Gust
kts
hPa Trend Height
m
Period
s
Dir
24/11:30pm 6.5 N 6 10 1001.5 - 0.0 - - - - - - -
24/11:00pm 6.4 N 7 11 1001.8 - 0.0 - - - - - - -
24/10:30pm 6.3 N 6 8 1002.0 - 0.0 - - - - - - -
24/10:00pm 6.3 NNW 5 6 1002.1 - 0.0 - - - - - - -
24/09:30pm 5.9 NNW 4 7 1002.5 - 0.0 - - - - - - -
24/09:00pm 5.8 NNW 4 5 1002.8 - 0.0 - - - - - - -
24/08:30pm 4.6 NNW 4 5 1002.8 - 0.0 - - - - - - -
24/08:00pm 5.5 NW 5 5 1003.0 - 0.0 - - - - - - -
24/07:30pm 6.5 NNW 5 6 1003.1 - 0.0 - - - - - - -
24/07:00pm 5.3 NNW 3 3 1003.1 - 0.0 - - - - - - -
24/06:30pm 5.5 N 3 3 1003.2 - 0.0 - - - - - - -
24/06:00pm 6.0 NNE 3 4 1003.0 - 0.0 - - - - - - -
24/05:30pm 6.2 N 2 3 1003.0 - 0.0 - - - - - - -
24/05:00pm 6.7 N 3 4 1003.1 - 0.0 - - - - - - -
24/04:30pm 7.4 NNW 3 5 1003.3 - 0.0 - - - - - - -
24/04:00pm 8.3 N 4 5 1003.5 - 0.0 - - - - - - -
24/03:30pm 8.7 NNW 3 4 1003.6 - 0.0 - - - - - - -
24/03:00pm 10.6 WNW 3 5 1003.5 - 0.0 - - - - - - -
24/02:30pm 10.9 NW 5 8 1003.5 - 0.0 - - - - - - -
24/02:00pm 11.3 NW 6 10 1003.6 - 0.0 - - - - - - -
24/01:30pm 10.7 NW 8 13 1004.0 - 0.0 - - - - - - -
24/01:00pm 10.4 NW 6 13 1004.4 - 0.0 - - - - - - -
24/12:30pm 10.5 NW 5 8 1004.7 - 0.0 - - - - - - -
24/12:00pm 10.4 NW 4 9 1004.9 - 0.0 - - - - - - -
24/11:30am 10.2 NW 6 10 1005.1 - 0.0 - - - - - - -
24/11:00am 10.1 W 3 8 1005.5 - 0.0 - - - - - - -
24/10:30am 8.4 WSW 5 8 1005.4 - 0.0 - - - - - - -
24/10:00am 6.8 W 6 9 1005.5 - 0.0 - - - - - - -
24/09:30am 6.4 W 8 14 1005.5 - 0.0 - - - - - - -
24/09:00am 5.4 W 7 10 1005.7 - 0.0 - - - - - - -
24/08:30am 5.3 WNW 7 13 1005.8 - 0.0 - - - - - - -
24/08:00am 4.3 WNW 5 10 1006.0 - 0.0 - - - - - - -
24/07:30am 4.0 NW 5 8 1005.9 - 0.0 - - - - - - -
24/07:00am 3.7 NW 5 7 1005.6 - 0.0 - - - - - - -
24/06:30am 3.9 WNW 6 10 1005.4 - 0.0 - - - - - - -
24/06:00am 3.3 WNW 5 7 1005.2 - 0.0 - - - - - - -
24/05:30am 4.1 WNW 5 10 1005.0 - 0.0 - - - - - - -
24/05:00am 4.2 WNW 6 11 1004.8 - 0.0 - - - - - - -
24/04:30am 4.0 WNW 6 12 1004.7 - 0.0 - - - - - - -
24/04:00am 4.2 WNW 7 14 1004.6 - 0.0 - - - - - - -
24/03:30am 3.8 W 5 9 1004.7 - 0.0 - - - - - - -
24/03:00am 4.2 WNW 7 11 1004.5 - 0.0 - - - - - - -
24/02:30am 3.9 WNW 6 11 1004.7 - 0.0 - - - - - - -
24/02:00am 4.0 WNW 7 13 1004.7 - 0.0 - - - - - - -
24/01:30am 3.4 W 4 8 1004.5 - 0.0 - - - - - - -
24/01:00am 4.3 W 7 11 1004.2 - 0.0 - - - - - - -
24/12:30am 4.2 W 8 13 1003.9 - 0.0 - - - - - - -
24/12:00am 3.4 W 7 13 1003.9 - 0.0 - - - - - - -
 
Date/Time
EST
Temp
°C
Wind Pressure Rain since
9am
mm
Weather Cloud Vis
km
Sea
Height
m
Swell
Dir  Spd
kts
Gust
kts
hPa Trend Height
m
Period
s
Dir
23/11:30pm 3.5 W 8 14 1003.9 - 0.0 - - - - - - -
23/11:00pm 3.6 W 8 15 1003.5 - 0.0 - - - - - - -
23/10:30pm 3.9 W 8 14 1002.8 - 0.0 - - - - - - -
23/10:00pm 4.1 WSW 9 15 1002.7 - 0.0 - - - - - - -
23/09:30pm 4.0 WSW 9 16 1001.8 - 0.0 - - - - - - -
23/09:00pm 4.4 WSW 12 23 1001.2 - 0.0 - - - - - - -
23/08:30pm 4.3 WSW 12 21 1000.5 - 0.0 - - - - - - -
23/08:00pm 4.1 WSW 9 14 1000.0 - 0.0 - - - - - - -
23/07:30pm 4.4 WSW 10 18 999.4 - 0.0 - - - - - - -
23/07:00pm 4.5 WSW 10 20 998.4 - 0.0 - - - - - - -
23/06:30pm 4.8 WSW 12 21 997.4 - 0.0 - - - - - - -
23/06:00pm 5.0 WSW 13 22 996.8 - 0.0 - - - - - - -
23/05:30pm 5.1 WSW 10 19 995.9 - 0.0 - - - - - - -
23/05:00pm 5.1 WSW 9 17 995.3 - 0.0 - - - - - - -
23/04:30pm 5.9 W 13 23 994.4 - 0.0 - - - - - - -
23/04:00pm 6.3 W 13 22 993.6 - 0.0 - - - - - - -
23/03:30pm 6.5 WSW 12 21 992.8 - 0.0 - - - - - - -
23/03:00pm 7.0 WSW 15 25 991.9 - 0.0 - - - - - - -
23/02:30pm 7.9 WSW 15 27 990.9 - 0.0 - - - - - - -
23/02:00pm 7.7 W 16 31 990.3 - 0.0 - - - - - - -
23/01:31pm 7.8 WSW 17 30 989.6 - 0.0 - - - - - - -
23/01:30pm 8.0 WSW 17 27 989.7 - 0.0 - - - - - - -
23/01:00pm 7.6 WSW 18 34 989.4 - 0.0 - - - - - - -
23/12:30pm 7.4 WSW 15 26 989.3 - 0.0 - - - - - - -
23/12:04pm 7.5 W 15 26 988.7 - 0.0 - - - - - - -
23/12:00pm 7.7 W 13 26 988.6 - 0.0 - - - - - - -
23/11:30am 7.4 W 15 30 988.7 - 0.0 - - - - - - -
23/11:12am 7.4 WSW 15 27 988.5 - 0.0 - - - - - - -
23/11:00am 7.3 WSW 12 21 988.6 - 0.0 - - - - - - -
23/10:33am 7.0 WSW 15 30 988.2 - 0.0 - - - - - - -
23/10:30am 6.9 WSW 14 25 988.2 - 0.0 - - - - - - -
23/10:00am 6.5 WSW 13 23 987.7 - 0.0 - - - - - - -
23/09:30am 6.1 W 9 16 987.2 - 0.0 - - - - - - -
23/09:00am 6.3 W 9 18 986.9 - 0.6 - - - - - - -
23/08:30am 6.4 WSW 11 21 986.1 - 0.6 - - - - - - -
23/08:00am 6.0 WSW 8 15 985.4 - 0.6 - - - - - - -
23/07:30am 6.2 WSW 9 13 985.3 - 0.6 - - - - - - -
23/07:00am 6.6 W 12 20 984.8 - 0.6 - - - - - - -
23/06:30am 5.6 SSW 3 5 984.5 - 0.6 - - - - - - -

Other Formats:

Comma delimited format used in spreadsheet applications
http://www.bom.gov.au/fwo/IDT60701/IDT60701.94987.axf

JavaScript Object Notation format (JSON) in row-major order
http://www.bom.gov.au/fwo/IDT60701/IDT60701.94987.json